Vienna, SD (57271)

12:02 PM CST on January 16, 2017 (GMT -0600)
West of Watertown | | Change Station

Elev 1765 ft 44.88 °N, 97.29 °W | Updated 14 minutes ago

Mostly Cloudy
Mostly Cloudy
19.2 °F
Feels Like 19 °F
N
0.0
Wind Variable Wind from ESE

Today
High -- | Low -- °F
--% Chance of Precip.
Yesterday
High -- | Low -- °F
Precip. -- in
Pressure 30.13 in
Visibility 5.0 miles
Clouds Clear
Windchill 19 °F
Dew Point 16 °F
Humidity 88%
Rainfall 0.00 in
Snow Depth Not available.
8:02 AM 5:17 PM
Waning Gibbous, 79% visible
METAR KATY 161753Z AUTO 00000KT 5SM BR CLR M09/M11 A3004 RMK AO2 SLP203 I6002 T10891106 11089 21156 58010
Pressure 30.13 in
Visibility 5.0 miles
Clouds Clear
Windchill 19 °F
Dew Point 16 °F
Humidity 88%
Rainfall 0.00 in
Snow Depth Not available.
8:02 AM 5:17 PM
Waning Gibbous, 79% visible
METAR KATY 161753Z AUTO 00000KT 5SM BR CLR M09/M11 A3004 RMK AO2 SLP203 I6002 T10891106 11089 21156 58010

Get Your Daily Forecast Email!

Thanks for signing up!

Be on the lookout for a verification email in your inbox.

You'll start receiving the daily forecast at 8 AM.

×

10-Day Weather Forecast

Almanac

Astronomy

Jan. 16, 2017 Rise Set
Actual Time
Civil Twilight
Nautical Twilight
Astronomical Twilight
Moon
Length of Visible Light
Length of Day
Tomorrow will be .
, % of the Moon is Illuminated

Today's Extremes

State Highs State Lows

Community

WunderPhotos

Upload Photos

1,962,540 photos uploaded!

WunderBlog® & News

Nearby

Air Quality

  Air Quality AQ Index Pollutant
Not available.

Snow Depth

Station Depth Elevation

Earthquake Activity

City Distance Mag. Time & Date
Minimum magnitude displayed is 2.5.

Coastal Water Temperatures

Place Temperature

Stations

Nearby Weather Stations

Station Location Temp. Windchill Dew Point Humidity Wind Precip. Elev Updated Type
                   

Watches & Warnings

There are currently no watches in effect.